sensor_id;sensor_type;location;lat;lon;timestamp;pressure;altitude;pressure_sealevel;temperature;humidity
51759;BME280;66684;47.568;18.734;2023-05-21T00:01:02;99581.00;;;17.74;86.99
51759;BME280;66684;47.568;18.734;2023-05-21T00:03:28;99588.81;;;17.72;86.61
51759;BME280;66684;47.568;18.734;2023-05-21T00:05:55;99586.00;;;17.57;88.37
51759;BME280;66684;47.568;18.734;2023-05-21T00:08:22;99591.16;;;17.51;89.10
51759;BME280;66684;47.568;18.734;2023-05-21T00:10:48;99586.88;;;17.59;87.61
51759;BME280;66684;47.568;18.734;2023-05-21T00:13:14;99588.59;;;17.54;87.97
51759;BME280;66684;47.568;18.734;2023-05-21T00:15:40;99585.09;;;17.55;88.16
51759;BME280;66684;47.568;18.734;2023-05-21T00:18:06;99586.78;;;17.50;89.48
51759;BME280;66684;47.568;18.734;2023-05-21T00:20:31;99590.19;;;17.43;89.84
51759;BME280;66684;47.568;18.734;2023-05-21T00:22:58;99584.97;;;17.43;89.85
51759;BME280;66684;47.568;18.734;2023-05-21T00:25:27;99594.47;;;17.38;91.92
51759;BME280;66684;47.568;18.734;2023-05-21T00:27:56;99588.19;;;17.23;93.37
51759;BME280;66684;47.568;18.734;2023-05-21T00:30:22;99584.75;;;17.27;93.67
51759;BME280;66684;47.568;18.734;2023-05-21T00:32:48;99583.69;;;17.15;92.64
51759;BME280;66684;47.568;18.734;2023-05-21T00:35:14;99588.72;;;16.99;95.93
51759;BME280;66684;47.568;18.734;2023-05-21T00:37:40;99593.88;;;16.96;96.56
51759;BME280;66684;47.568;18.734;2023-05-21T00:40:07;99597.41;;;16.98;95.64
51759;BME280;66684;47.568;18.734;2023-05-21T00:42:33;99597.34;;;16.95;94.96
51759;BME280;66684;47.568;18.734;2023-05-21T00:45:05;99597.94;;;16.78;96.71
51759;BME280;66684;47.568;18.734;2023-05-21T00:47:32;99597.91;;;16.75;98.80
51759;BME280;66684;47.568;18.734;2023-05-21T00:49:59;99603.16;;;16.78;97.80
51759;BME280;66684;47.568;18.734;2023-05-21T00:52:26;99606.72;;;16.83;96.70
51759;BME280;66684;47.568;18.734;2023-05-21T00:54:52;99607.66;;;16.35;100.00
51759;BME280;66684;47.568;18.734;2023-05-21T00:57:19;99604.75;;;16.18;100.00
51759;BME280;66684;47.568;18.734;2023-05-21T00:59:46;99601.59;;;16.36;100.00
51759;BME280;66684;47.568;18.734;2023-05-21T01:02:13;99608.78;;;16.49;100.00
51759;BME280;66684;47.568;18.734;2023-05-21T01:04:44;99608.66;;;16.41;100.00
51759;BME280;66684;47.568;18.734;2023-05-21T01:07:10;99604.34;;;16.45;99.71
51759;BME280;66684;47.568;18.734;2023-05-21T01:09:36;99606.16;;;16.49;98.70
51759;BME280;66684;47.568;18.734;2023-05-21T01:12:01;99602.13;;;16.16;100.00
51759;BME280;66684;47.568;18.734;2023-05-21T01:14:28;99588.56;;;16.36;98.97
51759;BME280;66684;47.568;18.734;2023-05-21T01:16:56;99591.84;;;16.26;98.01
51759;BME280;66684;47.568;18.734;2023-05-21T01:19:23;99587.69;;;16.35;96.93
51759;BME280;66684;47.568;18.734;2023-05-21T01:22:02;99592.16;;;16.44;95.72
51759;BME280;66684;47.568;18.734;2023-05-21T01:24:29;99587.91;;;16.51;94.93
51759;BME280;66684;47.568;18.734;2023-05-21T01:26:55;99581.69;;;16.41;95.66
51759;BME280;66684;47.568;18.734;2023-05-21T01:29:23;99580.00;;;16.46;94.75
51759;BME280;66684;47.568;18.734;2023-05-21T01:32:03;99582.59;;;16.43;95.61
51759;BME280;66684;47.568;18.734;2023-05-21T01:34:43;99587.03;;;16.50;94.91
51759;BME280;66684;47.568;18.734;2023-05-21T01:37:17;99581.06;;;16.57;94.11
51759;BME280;66684;47.568;18.734;2023-05-21T01:39:51;99576.72;;;16.56;93.97
51759;BME280;66684;47.568;18.734;2023-05-21T01:42:21;99578.56;;;16.65;93.58
51759;BME280;66684;47.568;18.734;2023-05-21T01:44:50;99579.44;;;16.65;93.59
51759;BME280;66684;47.568;18.734;2023-05-21T01:47:22;99578.84;;;16.79;92.46
51759;BME280;66684;47.568;18.734;2023-05-21T01:49:49;99577.91;;;16.74;93.37
51759;BME280;66684;47.568;18.734;2023-05-21T01:52:16;99576.81;;;16.62;94.31
51759;BME280;66684;47.568;18.734;2023-05-21T01:54:42;99579.50;;;16.67;94.11
51759;BME280;66684;47.568;18.734;2023-05-21T01:57:07;99576.00;;;16.66;94.31
51759;BME280;66684;47.568;18.734;2023-05-21T01:59:33;99577.69;;;16.64;94.49
51759;BME280;66684;47.568;18.734;2023-05-21T02:02:01;99571.47;;;16.53;95.64
51759;BME280;66684;47.568;18.734;2023-05-21T02:04:27;99570.97;;;16.26;97.34
51759;BME280;66684;47.568;18.734;2023-05-21T02:06:53;99568.41;;;16.27;96.94
51759;BME280;66684;47.568;18.734;2023-05-21T02:09:19;99571.84;;;16.25;97.59
51759;BME280;66684;47.568;18.734;2023-05-21T02:11:45;99567.41;;;16.21;98.83
51759;BME280;66684;47.568;18.734;2023-05-21T02:14:11;99574.13;;;16.06;98.49
51759;BME280;66684;47.568;18.734;2023-05-21T02:16:39;99580.09;;;16.01;98.90
51759;BME280;66684;47.568;18.734;2023-05-21T02:19:06;99584.44;;;16.00;99.38
51759;BME280;66684;47.568;18.734;2023-05-21T02:21:35;99579.22;;;16.00;100.00
51759;BME280;66684;47.568;18.734;2023-05-21T02:24:00;99574.13;;;16.06;99.29
51759;BME280;66684;47.568;18.734;2023-05-21T02:26:26;99568.16;;;16.12;98.05
51759;BME280;66684;47.568;18.734;2023-05-21T02:28:53;99577.62;;;16.08;98.39
51759;BME280;66684;47.568;18.734;2023-05-21T02:31:20;99581.97;;;16.08;97.82
51759;BME280;66684;47.568;18.734;2023-05-21T02:33:45;99575.97;;;16.13;97.18
51759;BME280;66684;47.568;18.734;2023-05-21T02:36:11;99567.25;;;16.10;97.07
51759;BME280;66684;47.568;18.734;2023-05-21T02:38:40;99568.13;;;16.10;97.43
51759;BME280;66684;47.568;18.734;2023-05-21T02:41:10;99567.31;;;16.14;96.63
51759;BME280;66684;47.568;18.734;2023-05-21T02:43:36;99562.94;;;16.13;96.29
51759;BME280;66684;47.568;18.734;2023-05-21T02:46:04;99564.69;;;16.14;96.62
51759;BME280;66684;47.568;18.734;2023-05-21T02:48:30;99574.31;;;16.17;96.06
51759;BME280;66684;47.568;18.734;2023-05-21T02:50:57;99575.88;;;16.07;96.64
51759;BME280;66684;47.568;18.734;2023-05-21T02:53:23;99571.63;;;16.14;95.70
51759;BME280;66684;47.568;18.734;2023-05-21T02:55:49;99580.28;;;16.10;96.00
51759;BME280;66684;47.568;18.734;2023-05-21T02:58:15;99583.53;;;15.97;97.34
51759;BME280;66684;47.568;18.734;2023-05-21T03:00:41;99583.44;;;15.94;98.06
51759;BME280;66684;47.568;18.734;2023-05-21T03:03:07;99585.41;;;16.05;96.40
51759;BME280;66684;47.568;18.734;2023-05-21T03:05:32;99583.59;;;16.03;96.33
51759;BME280;66684;47.568;18.734;2023-05-21T03:07:58;99578.59;;;16.13;95.58
51759;BME280;66684;47.568;18.734;2023-05-21T03:10:24;99580.84;;;15.95;96.64
51759;BME280;66684;47.568;18.734;2023-05-21T03:12:50;99577.41;;;15.96;97.10
51759;BME280;66684;47.568;18.734;2023-05-21T03:15:17;99577.34;;;15.93;96.08
51759;BME280;66684;47.568;18.734;2023-05-21T03:17:49;99578.94;;;15.85;96.59
51759;BME280;66684;47.568;18.734;2023-05-21T03:20:15;99575.84;;;16.04;95.04
51759;BME280;66684;47.568;18.734;2023-05-21T03:22:44;99571.63;;;16.12;94.49
51759;BME280;66684;47.568;18.734;2023-05-21T03:25:10;99584.50;;;16.03;94.86
51759;BME280;66684;47.568;18.734;2023-05-21T03:27:38;99578.50;;;16.09;94.66
51759;BME280;66684;47.568;18.734;2023-05-21T03:30:04;99581.19;;;16.12;94.77
51759;BME280;66684;47.568;18.734;2023-05-21T03:32:30;99582.91;;;16.11;94.69
51759;BME280;66684;47.568;18.734;2023-05-21T03:34:58;99584.63;;;16.11;94.17
51759;BME280;66684;47.568;18.734;2023-05-21T03:37:24;99594.84;;;16.00;94.68
51759;BME280;66684;47.568;18.734;2023-05-21T03:39:50;99586.16;;;16.00;94.02
51759;BME280;66684;47.568;18.734;2023-05-21T03:42:16;99589.19;;;16.23;92.47
51759;BME280;66684;47.568;18.734;2023-05-21T03:44:42;99591.72;;;16.19;92.64
51759;BME280;66684;47.568;18.734;2023-05-21T03:47:08;99602.13;;;16.16;93.33
51759;BME280;66684;47.568;18.734;2023-05-21T03:49:34;99591.72;;;16.19;93.47
51759;BME280;66684;47.568;18.734;2023-05-21T03:52:00;99595.16;;;16.15;94.05
51759;BME280;66684;47.568;18.734;2023-05-21T03:54:26;99589.34;;;16.32;92.89
51759;BME280;66684;47.568;18.734;2023-05-21T03:56:52;99585.03;;;16.34;92.53
51759;BME280;66684;47.568;18.734;2023-05-21T03:59:17;99587.72;;;16.38;91.65
51759;BME280;66684;47.568;18.734;2023-05-21T04:01:43;99592.81;;;16.32;93.01
51759;BME280;66684;47.568;18.734;2023-05-21T04:04:09;99585.88;;;16.33;93.22
51759;BME280;66684;47.568;18.734;2023-05-21T04:06:35;99580.66;;;16.31;93.77
51759;BME280;66684;47.568;18.734;2023-05-21T04:09:02;99587.34;;;16.15;94.75
51759;BME280;66684;47.568;18.734;2023-05-21T04:11:29;99589.22;;;16.26;94.77
51759;BME280;66684;47.568;18.734;2023-05-21T04:13:55;99595.41;;;16.31;94.74
51759;BME280;66684;47.568;18.734;2023-05-21T04:16:21;99590.22;;;16.34;94.83
51759;BME280;66684;47.568;18.734;2023-05-21T04:18:49;99599.63;;;16.23;95.55
51759;BME280;66684;47.568;18.734;2023-05-21T04:21:15;99589.97;;;16.18;95.90
51759;BME280;66684;47.568;18.734;2023-05-21T04:23:40;99590.09;;;16.25;96.22
51759;BME280;66684;47.568;18.734;2023-05-21T04:26:06;99585.06;;;16.35;96.12
51759;BME280;66684;47.568;18.734;2023-05-21T04:28:33;99590.31;;;16.37;95.16
51759;BME280;66684;47.568;18.734;2023-05-21T04:30:59;99585.22;;;16.46;93.95
51759;BME280;66684;47.568;18.734;2023-05-21T04:33:25;99583.47;;;16.45;93.88
51759;BME280;66684;47.568;18.734;2023-05-21T04:35:51;99589.72;;;16.53;92.53
51759;BME280;66684;47.568;18.734;2023-05-21T04:38:18;99589.72;;;16.53;92.77
51759;BME280;66684;47.568;18.734;2023-05-21T04:40:47;99582.00;;;16.61;92.34
51759;BME280;66684;47.568;18.734;2023-05-21T04:43:15;99586.69;;;16.80;89.23
51759;BME280;66684;47.568;18.734;2023-05-21T04:45:42;99592.00;;;16.86;89.06
51759;BME280;66684;47.568;18.734;2023-05-21T04:48:08;99593.75;;;16.86;88.75
51759;BME280;66684;47.568;18.734;2023-05-21T04:50:34;99598.19;;;16.93;87.63
51759;BME280;66684;47.568;18.734;2023-05-21T04:53:01;99592.22;;;17.02;86.52
51759;BME280;66684;47.568;18.734;2023-05-21T04:55:27;99590.63;;;17.10;85.03
51759;BME280;66684;47.568;18.734;2023-05-21T04:57:53;99594.12;;;17.15;84.98
51759;BME280;66684;47.568;18.734;2023-05-21T05:00:20;99591.59;;;17.19;83.70
51759;BME280;66684;47.568;18.734;2023-05-21T05:02:47;99598.75;;;17.33;82.56
51759;BME280;66684;47.568;18.734;2023-05-21T05:05:13;99603.16;;;17.38;83.16
51759;BME280;66684;47.568;18.734;2023-05-21T05:07:38;99604.19;;;17.48;82.96
51759;BME280;66684;47.568;18.734;2023-05-21T05:10:05;99599.22;;;17.69;82.96
51759;BME280;66684;47.568;18.734;2023-05-21T05:12:31;99604.53;;;17.75;81.25
51759;BME280;66684;47.568;18.734;2023-05-21T05:14:56;99602.78;;;17.74;81.27
51759;BME280;66684;47.568;18.734;2023-05-21T05:17:22;99604.81;;;18.00;79.89
51759;BME280;66684;47.568;18.734;2023-05-21T05:19:49;99604.94;;;18.12;79.45
51759;BME280;66684;47.568;18.734;2023-05-21T05:22:15;99600.78;;;18.32;80.23
51759;BME280;66684;47.568;18.734;2023-05-21T05:24:41;99601.81;;;18.50;80.02
51759;BME280;66684;47.568;18.734;2023-05-21T05:27:07;99594.94;;;18.63;78.22
51759;BME280;66684;47.568;18.734;2023-05-21T05:29:33;99601.22;;;18.81;76.83
51759;BME280;66684;47.568;18.734;2023-05-21T05:31:59;99585.50;;;18.80;75.50
51759;BME280;66684;47.568;18.734;2023-05-21T05:34:25;99594.25;;;18.82;75.76
51759;BME280;66684;47.568;18.734;2023-05-21T05:36:51;99589.97;;;18.95;74.98
51759;BME280;66684;47.568;18.734;2023-05-21T05:39:16;99600.44;;;18.95;74.78
51759;BME280;66684;47.568;18.734;2023-05-21T05:41:42;99595.28;;;19.10;75.53
51759;BME280;66684;47.568;18.734;2023-05-21T05:44:08;99592.69;;;19.16;74.37
51759;BME280;66684;47.568;18.734;2023-05-21T05:46:34;99603.31;;;19.37;74.13
51759;BME280;66684;47.568;18.734;2023-05-21T05:49:00;99600.75;;;19.50;73.74
51759;BME280;66684;47.568;18.734;2023-05-21T05:51:26;99594.59;;;19.48;71.77
51759;BME280;66684;47.568;18.734;2023-05-21T05:53:52;99592.00;;;19.54;73.76
51759;BME280;66684;47.568;18.734;2023-05-21T05:56:17;99590.34;;;19.62;72.17
51759;BME280;66684;47.568;18.734;2023-05-21T05:58:43;99595.63;;;19.68;72.73
51759;BME280;66684;47.568;18.734;2023-05-21T06:01:09;99595.69;;;19.86;72.99
51759;BME280;66684;47.568;18.734;2023-05-21T06:03:35;99595.72;;;19.92;70.08
51759;BME280;66684;47.568;18.734;2023-05-21T06:06:01;99597.47;;;20.03;71.54
51759;BME280;66684;47.568;18.734;2023-05-21T06:08:27;99605.31;;;20.04;71.78
51759;BME280;66684;47.568;18.734;2023-05-21T06:10:53;99600.13;;;20.13;71.27
51759;BME280;66684;47.568;18.734;2023-05-21T06:13:18;99595.75;;;20.26;69.08
51759;BME280;66684;47.568;18.734;2023-05-21T06:15:44;99592.25;;;20.41;70.33
51759;BME280;66684;47.568;18.734;2023-05-21T06:18:10;99588.75;;;20.40;68.13
51759;BME280;66684;47.568;18.734;2023-05-21T06:20:36;99594.03;;;20.31;67.69
51759;BME280;66684;47.568;18.734;2023-05-21T06:23:02;99587.00;;;20.36;69.07
51759;BME280;66684;47.568;18.734;2023-05-21T06:25:28;99586.16;;;20.31;69.77
51759;BME280;66684;47.568;18.734;2023-05-21T06:27:54;99583.53;;;20.37;68.35
51759;BME280;66684;47.568;18.734;2023-05-21T06:30:21;99585.25;;;20.41;70.48
51759;BME280;66684;47.568;18.734;2023-05-21T06:32:47;99580.06;;;20.51;69.56
51759;BME280;66684;47.568;18.734;2023-05-21T06:35:13;99580.03;;;20.60;69.60
51759;BME280;66684;47.568;18.734;2023-05-21T06:37:39;99574.81;;;20.63;68.41
51759;BME280;66684;47.568;18.734;2023-05-21T06:40:05;99580.91;;;20.77;68.21
51759;BME280;66684;47.568;18.734;2023-05-21T06:42:32;99573.03;;;20.89;68.05
51759;BME280;66684;47.568;18.734;2023-05-21T06:44:58;99569.50;;;20.96;68.84
51759;BME280;66684;47.568;18.734;2023-05-21T06:47:24;99567.69;;;21.17;67.37
51759;BME280;66684;47.568;18.734;2023-05-21T06:49:50;99572.06;;;21.27;64.46
51759;BME280;66684;47.568;18.734;2023-05-21T06:52:15;99571.19;;;21.25;65.24
51759;BME280;66684;47.568;18.734;2023-05-21T06:54:41;99569.38;;;21.48;67.84
51759;BME280;66684;47.568;18.734;2023-05-21T06:57:07;99564.06;;;21.61;66.80
51759;BME280;66684;47.568;18.734;2023-05-21T06:59:33;99564.00;;;21.73;66.92
51759;BME280;66684;47.568;18.734;2023-05-21T07:01:59;99561.34;;;21.74;65.29
51759;BME280;66684;47.568;18.734;2023-05-21T07:04:25;99557.81;;;21.85;67.45
51759;BME280;66684;47.568;18.734;2023-05-21T07:06:51;99551.59;;;21.96;64.84
51759;BME280;66684;47.568;18.734;2023-05-21T07:09:18;99554.25;;;21.95;65.44
51759;BME280;66684;47.568;18.734;2023-05-21T07:11:44;99552.44;;;22.03;66.83
51759;BME280;66684;47.568;18.734;2023-05-21T07:14:09;99555.03;;;22.04;63.43
51759;BME280;66684;47.568;18.734;2023-05-21T07:16:35;99547.94;;;22.19;61.86
51759;BME280;66684;47.568;18.734;2023-05-21T07:19:01;99547.91;;;22.25;60.51
51759;BME280;66684;47.568;18.734;2023-05-21T07:21:27;99551.41;;;22.27;62.96
51759;BME280;66684;47.568;18.734;2023-05-21T07:23:53;99546.94;;;22.40;60.99
51759;BME280;66684;47.568;18.734;2023-05-21T07:26:19;99553.00;;;22.48;60.48
51759;BME280;66684;47.568;18.734;2023-05-21T07:28:46;99546.06;;;22.36;56.92
51759;BME280;66684;47.568;18.734;2023-05-21T07:31:11;99544.28;;;22.44;57.80
51759;BME280;66684;47.568;18.734;2023-05-21T07:33:37;99538.09;;;22.44;57.36
51759;BME280;66684;47.568;18.734;2023-05-21T07:36:04;99546.88;;;22.46;58.78
51759;BME280;66684;47.568;18.734;2023-05-21T07:38:30;99539.09;;;22.32;56.54
51759;BME280;66684;47.568;18.734;2023-05-21T07:40:56;99538.22;;;22.30;56.99
51759;BME280;66684;47.568;18.734;2023-05-21T07:43:22;99539.81;;;22.49;57.91
51759;BME280;66684;47.568;18.734;2023-05-21T07:45:48;99540.53;;;22.70;58.76
51759;BME280;66684;47.568;18.734;2023-05-21T07:48:14;99543.00;;;22.88;59.23
51759;BME280;66684;47.568;18.734;2023-05-21T07:50:40;99545.69;;;22.82;56.29
51759;BME280;66684;47.568;18.734;2023-05-21T07:53:06;99536.81;;;22.86;56.85
51759;BME280;66684;47.568;18.734;2023-05-21T07:55:32;99538.53;;;22.96;56.69
51759;BME280;66684;47.568;18.734;2023-05-21T07:57:58;99533.34;;;22.88;57.04
51759;BME280;66684;47.568;18.734;2023-05-21T08:00:24;99528.72;;;23.09;57.50
51759;BME280;66684;47.568;18.734;2023-05-21T08:02:50;99528.53;;;23.24;56.50
51759;BME280;66684;47.568;18.734;2023-05-21T08:05:16;99530.19;;;23.33;55.47
51759;BME280;66684;47.568;18.734;2023-05-21T08:07:42;99526.53;;;23.45;54.62
51759;BME280;66684;47.568;18.734;2023-05-21T08:10:08;99528.13;;;23.58;54.50
51759;BME280;66684;47.568;18.734;2023-05-21T08:12:34;99527.50;;;23.36;52.37
51759;BME280;66684;47.568;18.734;2023-05-21T08:15:00;99527.34;;;23.51;55.12
51759;BME280;66684;47.568;18.734;2023-05-21T08:17:26;99535.06;;;23.66;54.50
51759;BME280;66684;47.568;18.734;2023-05-21T08:19:55;99527.09;;;23.69;54.59
51759;BME280;66684;47.568;18.734;2023-05-21T08:22:21;99529.63;;;23.76;54.66
51759;BME280;66684;47.568;18.734;2023-05-21T08:24:47;99529.47;;;23.88;55.46
51759;BME280;66684;47.568;18.734;2023-05-21T08:27:13;99525.06;;;23.90;51.96
51759;BME280;66684;47.568;18.734;2023-05-21T08:29:41;99532.00;;;23.94;51.67
51759;BME280;66684;47.568;18.734;2023-05-21T08:32:07;99526.72;;;23.94;51.47
51759;BME280;66684;47.568;18.734;2023-05-21T08:34:34;99526.59;;;24.05;52.99
51759;BME280;66684;47.568;18.734;2023-05-21T08:37:00;99527.50;;;24.02;52.46
51759;BME280;66684;47.568;18.734;2023-05-21T08:39:26;99519.34;;;24.17;51.81
51759;BME280;66684;47.568;18.734;2023-05-21T08:41:56;99529.78;;;24.27;53.97
51759;BME280;66684;47.568;18.734;2023-05-21T08:44:24;99523.41;;;24.40;52.08
51759;BME280;66684;47.568;18.734;2023-05-21T08:46:53;99522.69;;;24.29;49.68
51759;BME280;66684;47.568;18.734;2023-05-21T08:49:22;99529.63;;;24.36;52.35
51759;BME280;66684;47.568;18.734;2023-05-21T08:51:51;99518.03;;;24.46;49.80
51759;BME280;66684;47.568;18.734;2023-05-21T08:54:18;99520.28;;;24.67;50.02
51759;BME280;66684;47.568;18.734;2023-05-21T08:56:43;99526.16;;;24.34;50.26
51759;BME280;66684;47.568;18.734;2023-05-21T08:59:15;99520.87;;;24.34;50.59
51759;BME280;66684;47.568;18.734;2023-05-21T09:01:41;99526.00;;;24.43;52.42
51759;BME280;66684;47.568;18.734;2023-05-21T09:04:08;99523.97;;;24.57;49.85
51759;BME280;66684;47.568;18.734;2023-05-21T09:06:36;99522.13;;;24.62;50.14
51759;BME280;66684;47.568;18.734;2023-05-21T09:09:07;99520.00;;;24.83;50.37
51759;BME280;66684;47.568;18.734;2023-05-21T09:11:35;99519.44;;;24.64;55.19
51759;BME280;66684;47.568;18.734;2023-05-21T09:14:02;99518.28;;;24.80;50.44
51759;BME280;66684;47.568;18.734;2023-05-21T09:16:28;99521.53;;;24.96;50.56
51759;BME280;66684;47.568;18.734;2023-05-21T09:18:54;99517.94;;;24.98;49.51
51759;BME280;66684;47.568;18.734;2023-05-21T09:21:27;99514.69;;;24.83;46.88
51759;BME280;66684;47.568;18.734;2023-05-21T09:23:57;99518.94;;;24.93;47.24
51759;BME280;66684;47.568;18.734;2023-05-21T09:26:24;99519.06;;;24.85;49.32
51759;BME280;66684;47.568;18.734;2023-05-21T09:28:51;99512.69;;;24.97;50.11
51759;BME280;66684;47.568;18.734;2023-05-21T09:31:22;99516.13;;;25.02;48.34
51759;BME280;66684;47.568;18.734;2023-05-21T09:33:48;99515.22;;;25.05;49.58
51759;BME280;66684;47.568;18.734;2023-05-21T09:36:21;99513.31;;;25.11;50.54
51759;BME280;66684;47.568;18.734;2023-05-21T09:38:48;99508.69;;;25.22;48.20
51759;BME280;66684;47.568;18.734;2023-05-21T09:41:14;99515.63;;;25.26;49.73
51759;BME280;66684;47.568;18.734;2023-05-21T09:43:41;99507.53;;;25.36;48.33
51759;BME280;66684;47.568;18.734;2023-05-21T09:46:08;99512.59;;;25.45;47.99
51759;BME280;66684;47.568;18.734;2023-05-21T09:48:36;99511.28;;;25.64;47.66
51759;BME280;66684;47.568;18.734;2023-05-21T09:51:13;99510.91;;;25.82;47.84
51759;BME280;66684;47.568;18.734;2023-05-21T09:53:50;99514.13;;;25.97;46.00
51759;BME280;66684;47.568;18.734;2023-05-21T09:56:24;99508.50;;;25.73;45.30
51759;BME280;66684;47.568;18.734;2023-05-21T09:58:52;99513.50;;;25.86;46.78
51759;BME280;66684;47.568;18.734;2023-05-21T10:01:20;99505.00;;;25.70;46.79
51759;BME280;66684;47.568;18.734;2023-05-21T10:03:51;99513.91;;;25.25;47.27
51759;BME280;66684;47.568;18.734;2023-05-21T10:06:19;99509.84;;;25.51;45.43
51759;BME280;66684;47.568;18.734;2023-05-21T10:08:47;99500.81;;;25.61;45.54
51759;BME280;66684;47.568;18.734;2023-05-21T10:11:15;99509.84;;;25.91;46.13
51759;BME280;66684;47.568;18.734;2023-05-21T10:13:44;99495.47;;;26.03;46.08
51759;BME280;66684;47.568;18.734;2023-05-21T10:16:14;99510.28;;;26.10;44.13
51759;BME280;66684;47.568;18.734;2023-05-21T10:18:41;99508.63;;;26.06;42.58
51759;BME280;66684;47.568;18.734;2023-05-21T10:21:07;99505.09;;;26.05;43.19
51759;BME280;66684;47.568;18.734;2023-05-21T10:23:35;99500.97;;;26.29;44.43
51759;BME280;66684;47.568;18.734;2023-05-21T10:26:03;99492.13;;;26.30;43.36
51759;BME280;66684;47.568;18.734;2023-05-21T10:28:30;99508.41;;;26.15;41.73
51759;BME280;66684;47.568;18.734;2023-05-21T10:30:57;99495.59;;;26.32;43.14
51759;BME280;66684;47.568;18.734;2023-05-21T10:33:24;99487.78;;;26.62;42.64
51759;BME280;66684;47.568;18.734;2023-05-21T10:35:52;99499.31;;;26.61;41.44
51759;BME280;66684;47.568;18.734;2023-05-21T10:38:19;99496.50;;;26.67;42.78
51759;BME280;66684;47.568;18.734;2023-05-21T10:40:48;99490.47;;;26.93;40.80
51759;BME280;66684;47.568;18.734;2023-05-21T10:46:47;99493.25;;;26.56;40.79
51759;BME280;66684;47.568;18.734;2023-05-21T10:49:34;99494.06;;;26.59;40.52
51759;BME280;66684;47.568;18.734;2023-05-21T10:52:13;99483.72;;;26.81;40.22
51759;BME280;66684;47.568;18.734;2023-05-21T10:58:08;99481.25;;;27.08;40.05
51759;BME280;66684;47.568;18.734;2023-05-21T11:00:38;99482.00;;;27.42;39.82
51759;BME280;66684;47.568;18.734;2023-05-21T11:03:06;99479.59;;;27.35;38.39
51759;BME280;66684;47.568;18.734;2023-05-21T11:08:27;99475.84;;;27.40;38.17
51759;BME280;66684;47.568;18.734;2023-05-21T11:10:59;99481.09;;;27.43;38.59
51759;BME280;66684;47.568;18.734;2023-05-21T11:13:26;99482.91;;;27.12;39.17
51759;BME280;66684;47.568;18.734;2023-05-21T11:24:07;99470.06;;;26.97;40.18
51759;BME280;66684;47.568;18.734;2023-05-21T11:26:58;99463.00;;;27.28;42.17
51759;BME280;66684;47.568;18.734;2023-05-21T11:29:39;99467.91;;;27.40;39.70
51759;BME280;66684;47.568;18.734;2023-05-21T11:32:09;99467.91;;;27.40;40.21
51759;BME280;66684;47.568;18.734;2023-05-21T11:34:40;99468.37;;;27.55;40.62
51759;BME280;66684;47.568;18.734;2023-05-21T11:39:44;99460.28;;;27.58;38.49
51759;BME280;66684;47.568;18.734;2023-05-21T11:42:10;99464.97;;;27.20;39.91
51759;BME280;66684;47.568;18.734;2023-05-21T11:44:37;99462.47;;;26.84;41.69
51759;BME280;66684;47.568;18.734;2023-05-21T11:47:05;99467.75;;;26.84;41.80
51759;BME280;66684;47.568;18.734;2023-05-21T11:49:32;99471.84;;;27.27;40.90
51759;BME280;66684;47.568;18.734;2023-05-21T11:52:02;99467.00;;;27.71;40.30
51759;BME280;66684;47.568;18.734;2023-05-21T11:54:30;99461.41;;;27.80;39.04
51759;BME280;66684;47.568;18.734;2023-05-21T11:57:02;99456.44;;;27.98;38.24
51759;BME280;66684;47.568;18.734;2023-05-21T11:59:30;99457.44;;;27.93;37.16
51759;BME280;66684;47.568;18.734;2023-05-21T12:01:58;99453.94;;;27.63;38.61
51759;BME280;66684;47.568;18.734;2023-05-21T12:04:29;99462.13;;;27.56;40.83
51759;BME280;66684;47.568;18.734;2023-05-21T12:06:55;99456.94;;;27.23;41.88
51759;BME280;66684;47.568;18.734;2023-05-21T12:09:23;99458.38;;;27.04;42.16
51759;BME280;66684;47.568;18.734;2023-05-21T12:11:49;99454.00;;;27.01;40.55
51759;BME280;66684;47.568;18.734;2023-05-21T12:14:16;99446.28;;;26.94;41.60
51759;BME280;66684;47.568;18.734;2023-05-21T12:16:42;99449.78;;;26.94;41.94
51759;BME280;66684;47.568;18.734;2023-05-21T12:19:08;99448.31;;;26.51;42.49
51759;BME280;66684;47.568;18.734;2023-05-21T12:21:34;99443.53;;;26.31;40.71
51759;BME280;66684;47.568;18.734;2023-05-21T12:24:01;99447.75;;;26.39;42.42
51759;BME280;66684;47.568;18.734;2023-05-21T12:26:27;99436.28;;;26.72;42.26
51759;BME280;66684;47.568;18.734;2023-05-21T12:28:54;99443.13;;;27.12;41.64
51759;BME280;66684;47.568;18.734;2023-05-21T12:31:21;99426.03;;;27.50;41.90
51759;BME280;66684;47.568;18.734;2023-05-21T12:33:49;99433.00;;;27.82;39.88
51759;BME280;66684;47.568;18.734;2023-05-21T12:36:24;99428.56;;;27.83;39.69
51759;BME280;66684;47.568;18.734;2023-05-21T12:38:51;99417.72;;;27.89;38.94
51759;BME280;66684;47.568;18.734;2023-05-21T12:41:17;99427.81;;;27.79;38.47
51759;BME280;66684;47.568;18.734;2023-05-21T12:43:44;99426.16;;;27.75;39.93
51759;BME280;66684;47.568;18.734;2023-05-21T12:46:10;99420.25;;;27.93;38.91
51759;BME280;66684;47.568;18.734;2023-05-21T12:48:39;99398.44;;;28.37;38.01
51759;BME280;66684;47.568;18.734;2023-05-21T12:51:07;99408.94;;;28.40;37.53
51759;BME280;66684;47.568;18.734;2023-05-21T12:53:36;99408.84;;;28.68;35.90
51759;BME280;66684;47.568;18.734;2023-05-21T12:56:13;99399.75;;;28.98;35.52
51759;BME280;66684;47.568;18.734;2023-05-21T12:58:40;99399.59;;;29.25;35.57
51759;BME280;66684;47.568;18.734;2023-05-21T13:03:32;99392.56;;;29.46;33.91
51759;BME280;66684;47.568;18.734;2023-05-21T13:05:58;99389.22;;;28.95;34.20
51759;BME280;66684;47.568;18.734;2023-05-21T13:08:26;99387.56;;;29.15;35.16
51759;BME280;66684;47.568;18.734;2023-05-21T13:10:52;99399.31;;;29.09;35.75
51759;BME280;66684;47.568;18.734;2023-05-21T13:13:18;99391.94;;;29.17;35.33